sensor_id;sensor_type;location;lat;lon;timestamp;temperature;humidity
10441;DHT22;5268;49.346;9.522;2023-02-21T04:07:51;4.00;99.90
10441;DHT22;5268;49.346;9.522;2023-02-21T04:12:53;4.00;99.90
10441;DHT22;5268;49.346;9.522;2023-02-21T04:17:55;4.00;99.90
10441;DHT22;5268;49.346;9.522;2023-02-21T04:22:58;3.90;99.90
10441;DHT22;5268;49.346;9.522;2023-02-21T04:28:00;3.90;99.90
10441;DHT22;5268;49.346;9.522;2023-02-21T04:33:02;3.90;99.90
10441;DHT22;5268;49.346;9.522;2023-02-21T04:38:06;3.90;99.90
10441;DHT22;5268;49.346;9.522;2023-02-21T04:43:08;3.80;99.90
10441;DHT22;5268;49.346;9.522;2023-02-21T04:48:10;3.70;99.90
10441;DHT22;5268;49.346;9.522;2023-02-21T04:53:14;3.70;99.90
10441;DHT22;5268;49.346;9.522;2023-02-21T04:58:16;3.70;99.90
10441;DHT22;5268;49.346;9.522;2023-02-21T05:03:18;3.70;99.90
10441;DHT22;5268;49.346;9.522;2023-02-21T05:08:23;3.70;99.90
10441;DHT22;5268;49.346;9.522;2023-02-21T05:13:26;3.70;99.90
10441;DHT22;5268;49.346;9.522;2023-02-21T05:18:29;3.70;99.90
10441;DHT22;5268;49.346;9.522;2023-02-21T05:23:38;3.70;99.90
10441;DHT22;5268;49.346;9.522;2023-02-21T05:28:40;3.60;99.90
10441;DHT22;5268;49.346;9.522;2023-02-21T05:33:44;3.50;99.90
10441;DHT22;5268;49.346;9.522;2023-02-21T05:38:50;3.50;99.90
10441;DHT22;5268;49.346;9.522;2023-02-21T05:43:53;3.50;99.90
10441;DHT22;5268;49.346;9.522;2023-02-21T05:48:56;3.50;99.90
10441;DHT22;5268;49.346;9.522;2023-02-21T05:54:00;3.40;99.90
10441;DHT22;5268;49.346;9.522;2023-02-21T05:59:02;3.40;99.90
10441;DHT22;5268;49.346;9.522;2023-02-21T06:04:05;3.30;99.90
10441;DHT22;5268;49.346;9.522;2023-02-21T06:09:09;3.30;99.90
10441;DHT22;5268;49.346;9.522;2023-02-21T06:14:14;3.30;99.90
10441;DHT22;5268;49.346;9.522;2023-02-21T06:19:17;3.30;99.90
10441;DHT22;5268;49.346;9.522;2023-02-21T06:24:21;3.20;99.90
10441;DHT22;5268;49.346;9.522;2023-02-21T06:29:23;3.20;99.90
10441;DHT22;5268;49.346;9.522;2023-02-21T06:34:26;3.20;99.90
10441;DHT22;5268;49.346;9.522;2023-02-21T06:39:30;3.20;99.90
10441;DHT22;5268;49.346;9.522;2023-02-21T06:44:32;3.20;99.90
10441;DHT22;5268;49.346;9.522;2023-02-21T06:49:35;3.30;99.90
10441;DHT22;5268;49.346;9.522;2023-02-21T07:05:52;3.30;99.90
10441;DHT22;5268;49.346;9.522;2023-02-21T07:11:24;3.80;99.90
10441;DHT22;5268;49.346;9.522;2023-02-21T07:17:11;4.60;99.90
10441;DHT22;5268;49.346;9.522;2023-02-21T07:28:07;6.20;99.90
10441;DHT22;5268;49.346;9.522;2023-02-21T07:33:12;7.00;99.90
10441;DHT22;5268;49.346;9.522;2023-02-21T07:38:24;7.70;99.90
10441;DHT22;5268;49.346;9.522;2023-02-21T07:54:00;9.40;99.90
10441;DHT22;5268;49.346;9.522;2023-02-21T07:59:41;9.90;99.90
10441;DHT22;5268;49.346;9.522;2023-02-21T08:28:33;12.90;99.90
10441;DHT22;5268;49.346;9.522;2023-02-21T08:34:04;13.60;99.90
10441;DHT22;5268;49.346;9.522;2023-02-21T08:39:56;14.20;99.90
10441;DHT22;5268;49.346;9.522;2023-02-21T08:56:23;14.90;99.90
10441;DHT22;5268;49.346;9.522;2023-02-21T09:02:02;14.40;99.90
10441;DHT22;5268;49.346;9.522;2023-02-21T09:08:05;13.80;99.90
10441;DHT22;5268;49.346;9.522;2023-02-21T09:13:50;13.40;99.90
10441;DHT22;5268;49.346;9.522;2023-02-21T09:36:54;13.80;99.90
10441;DHT22;5268;49.346;9.522;2023-02-21T09:48:03;14.30;99.90
10441;DHT22;5268;49.346;9.522;2023-02-21T09:53:51;14.60;99.90
10441;DHT22;5268;49.346;9.522;2023-02-21T09:59:19;14.90;99.90
10441;DHT22;5268;49.346;9.522;2023-02-21T10:05:07;15.00;99.90
10441;DHT22;5268;49.346;9.522;2023-02-21T10:10:46;15.10;99.90
10441;DHT22;5268;49.346;9.522;2023-02-21T10:21:39;15.20;99.90
10441;DHT22;5268;49.346;9.522;2023-02-21T10:27:21;15.30;99.90
10441;DHT22;5268;49.346;9.522;2023-02-21T10:33:05;15.40;99.90
10441;DHT22;5268;49.346;9.522;2023-02-21T10:56:49;15.80;99.90
10441;DHT22;5268;49.346;9.522;2023-02-21T11:08:18;16.20;99.90
10441;DHT22;5268;49.346;9.522;2023-02-21T11:20:02;16.30;99.90
10441;DHT22;5268;49.346;9.522;2023-02-21T11:25:48;16.30;99.90
10441;DHT22;5268;49.346;9.522;2023-02-21T11:37:27;16.30;99.90
10441;DHT22;5268;49.346;9.522;2023-02-21T11:48:32;16.70;99.90
10441;DHT22;5268;49.346;9.522;2023-02-21T11:54:12;16.70;99.90
10441;DHT22;5268;49.346;9.522;2023-02-21T12:00:10;16.80;99.90
10441;DHT22;5268;49.346;9.522;2023-02-21T12:06:13;16.80;99.90
10441;DHT22;5268;49.346;9.522;2023-02-21T12:47:22;17.00;99.90
10441;DHT22;5268;49.346;9.522;2023-02-21T12:53:08;17.00;99.90
10441;DHT22;5268;49.346;9.522;2023-02-21T12:58:46;17.10;99.90
10441;DHT22;5268;49.346;9.522;2023-02-21T13:04:15;17.00;99.90
10441;DHT22;5268;49.346;9.522;2023-02-21T13:09:58;17.00;99.90
10441;DHT22;5268;49.346;9.522;2023-02-21T13:15:41;17.00;99.90
10441;DHT22;5268;49.346;9.522;2023-02-21T13:33:03;17.00;99.90
10441;DHT22;5268;49.346;9.522;2023-02-21T13:38:09;17.00;99.90
10441;DHT22;5268;49.346;9.522;2023-02-21T13:43:20;17.00;99.90
10441;DHT22;5268;49.346;9.522;2023-02-21T13:48:32;16.90;99.90
10441;DHT22;5268;49.346;9.522;2023-02-21T13:58:55;16.90;99.90
10441;DHT22;5268;49.346;9.522;2023-02-21T14:05:05;16.80;99.90
10441;DHT22;5268;49.346;9.522;2023-02-21T14:10:42;16.70;99.90
10441;DHT22;5268;49.346;9.522;2023-02-21T14:16:29;16.70;99.90
10441;DHT22;5268;49.346;9.522;2023-02-21T14:22:22;16.70;99.90
10441;DHT22;5268;49.346;9.522;2023-02-21T14:33:45;16.50;99.90
10441;DHT22;5268;49.346;9.522;2023-02-21T15:22:14;16.00;99.90
10441;DHT22;5268;49.346;9.522;2023-02-21T15:28:00;16.00;99.90
10441;DHT22;5268;49.346;9.522;2023-02-21T15:33:34;15.90;99.90
10441;DHT22;5268;49.346;9.522;2023-02-21T15:39:19;15.80;99.90
10441;DHT22;5268;49.346;9.522;2023-02-21T15:44:51;15.70;99.90
10441;DHT22;5268;49.346;9.522;2023-02-21T15:50:25;15.60;99.90
10441;DHT22;5268;49.346;9.522;2023-02-21T16:01:36;15.50;99.90
10441;DHT22;5268;49.346;9.522;2023-02-21T16:06:57;15.40;99.90
10441;DHT22;5268;49.346;9.522;2023-02-21T16:12:59;15.30;99.90
10441;DHT22;5268;49.346;9.522;2023-02-21T16:18:25;15.20;99.90
10441;DHT22;5268;49.346;9.522;2023-02-21T16:30:01;15.00;99.90
10441;DHT22;5268;49.346;9.522;2023-02-21T16:52:45;14.10;99.90
10441;DHT22;5268;49.346;9.522;2023-02-21T16:58:27;13.90;99.90
10441;DHT22;5268;49.346;9.522;2023-02-21T17:03:49;13.70;99.90
10441;DHT22;5268;49.346;9.522;2023-02-21T17:09:44;13.40;99.90
10441;DHT22;5268;49.346;9.522;2023-02-21T17:20:38;13.00;99.90
10441;DHT22;5268;49.346;9.522;2023-02-21T17:26:16;12.80;99.90
10441;DHT22;5268;49.346;9.522;2023-02-21T17:31:50;12.50;99.90
10441;DHT22;5268;49.346;9.522;2023-02-21T17:37:23;12.30;99.90
10441;DHT22;5268;49.346;9.522;2023-02-21T17:42:57;12.10;99.90
10441;DHT22;5268;49.346;9.522;2023-02-21T17:48:26;11.90;99.90
10441;DHT22;5268;49.346;9.522;2023-02-21T17:54:06;11.70;99.90
10441;DHT22;5268;49.346;9.522;2023-02-21T18:10:27;11.10;99.90
10441;DHT22;5268;49.346;9.522;2023-02-21T18:21:59;10.80;99.90
10441;DHT22;5268;49.346;9.522;2023-02-21T18:27:26;10.70;99.90
10441;DHT22;5268;49.346;9.522;2023-02-21T18:33:46;10.50;99.90
10441;DHT22;5268;49.346;9.522;2023-02-21T18:45:30;10.30;99.90
10441;DHT22;5268;49.346;9.522;2023-02-21T18:56:14;9.90;99.90
10441;DHT22;5268;49.346;9.522;2023-02-21T19:02:16;9.80;99.90
10441;DHT22;5268;49.346;9.522;2023-02-21T19:07:59;9.70;99.90
10441;DHT22;5268;49.346;9.522;2023-02-21T19:13:36;9.50;99.90
10441;DHT22;5268;49.346;9.522;2023-02-21T19:18:57;9.40;99.90
10441;DHT22;5268;49.346;9.522;2023-02-21T19:24:20;9.10;99.90
10441;DHT22;5268;49.346;9.522;2023-02-21T19:30:11;8.90;99.90
10441;DHT22;5268;49.346;9.522;2023-02-21T19:41:34;8.80;99.90
10441;DHT22;5268;49.346;9.522;2023-02-21T19:47:16;8.70;99.90
10441;DHT22;5268;49.346;9.522;2023-02-21T19:52:55;8.60;99.90
10441;DHT22;5268;49.346;9.522;2023-02-21T19:58:36;8.50;99.90
10441;DHT22;5268;49.346;9.522;2023-02-21T20:03:53;8.50;99.90
10441;DHT22;5268;49.346;9.522;2023-02-21T20:09:21;8.40;99.90
10441;DHT22;5268;49.346;9.522;2023-02-21T20:15:08;8.30;99.90
10441;DHT22;5268;49.346;9.522;2023-02-21T20:20:45;8.20;99.90
10441;DHT22;5268;49.346;9.522;2023-02-21T20:31:44;8.00;99.90
10441;DHT22;5268;49.346;9.522;2023-02-21T20:37:19;7.90;99.90
10441;DHT22;5268;49.346;9.522;2023-02-21T20:48:41;7.70;99.90
10441;DHT22;5268;49.346;9.522;2023-02-21T21:10:40;7.30;99.90
10441;DHT22;5268;49.346;9.522;2023-02-21T21:16:17;7.20;99.90
10441;DHT22;5268;49.346;9.522;2023-02-21T21:21:47;7.10;99.90
10441;DHT22;5268;49.346;9.522;2023-02-21T21:27:00;7.00;99.90
10441;DHT22;5268;49.346;9.522;2023-02-21T21:38:33;6.90;99.90
10441;DHT22;5268;49.346;9.522;2023-02-21T21:43:59;6.80;99.90
10441;DHT22;5268;49.346;9.522;2023-02-21T21:49:16;6.80;99.90
10441;DHT22;5268;49.346;9.522;2023-02-21T21:54:45;6.70;99.90
10441;DHT22;5268;49.346;9.522;2023-02-21T22:00:19;6.60;99.90
10441;DHT22;5268;49.346;9.522;2023-02-21T22:11:08;6.60;99.90
10441;DHT22;5268;49.346;9.522;2023-02-21T22:22:17;6.40;99.90
10441;DHT22;5268;49.346;9.522;2023-02-21T22:27:45;6.30;99.90
10441;DHT22;5268;49.346;9.522;2023-02-21T22:33:08;6.10;99.90
10441;DHT22;5268;49.346;9.522;2023-02-21T22:38:44;6.10;99.90
10441;DHT22;5268;49.346;9.522;2023-02-21T22:44:17;6.00;99.90
10441;DHT22;5268;49.346;9.522;2023-02-21T22:49:37;5.90;99.90
10441;DHT22;5268;49.346;9.522;2023-02-21T22:54:53;5.80;99.90
